createdAt,value
2019-02-28T00:00:30.486Z,4.00
2019-02-28T00:02:58.604Z,3.80
2019-02-28T00:05:24.987Z,3.70
2019-02-28T00:07:51.240Z,3.70
2019-02-28T00:10:17.478Z,3.70
2019-02-28T00:12:45.208Z,3.80
2019-02-28T00:15:12.061Z,3.90
2019-02-28T00:17:42.563Z,4.20
2019-02-28T00:20:08.120Z,4.30
2019-02-28T00:22:34.441Z,4.30
2019-02-28T00:25:01.138Z,4.30
2019-02-28T00:27:29.123Z,4.40
2019-02-28T00:29:55.811Z,4.50
2019-02-28T00:32:24.850Z,4.60
2019-02-28T00:34:50.536Z,4.60
2019-02-28T00:37:18.583Z,4.70
2019-02-28T00:39:45.337Z,4.80
2019-02-28T00:42:11.657Z,4.80
2019-02-28T00:44:37.993Z,4.80
2019-02-28T00:47:04.377Z,4.80
2019-02-28T00:49:30.693Z,4.90
2019-02-28T00:51:56.931Z,5.00
2019-02-28T00:54:23.253Z,5.00
2019-02-28T00:56:52.526Z,5.00
2019-02-28T00:59:18.569Z,5.00
2019-02-28T01:01:46.042Z,5.10
2019-02-28T01:04:13.140Z,5.10
2019-02-28T01:06:41.797Z,5.20
2019-02-28T01:09:07.894Z,5.20
2019-02-28T01:11:35.221Z,5.10
2019-02-28T01:14:02.522Z,5.00
2019-02-28T01:16:28.866Z,4.90
2019-02-28T01:18:55.105Z,4.90
2019-02-28T01:21:24.014Z,4.90
2019-02-28T01:23:49.573Z,4.90
2019-02-28T01:26:15.809Z,4.90
2019-02-28T01:28:42.066Z,4.80
2019-02-28T01:31:11.602Z,4.70
2019-02-28T01:33:36.525Z,4.60
2019-02-28T01:36:03.072Z,4.40
2019-02-28T01:38:29.666Z,4.30
2019-02-28T01:40:56.007Z,4.10
2019-02-28T01:43:28.312Z,3.90
2019-02-28T01:45:53.359Z,3.80
2019-02-28T01:48:22.616Z,3.70
2019-02-28T01:50:47.785Z,3.60
2019-02-28T01:53:18.743Z,3.50
2019-02-28T01:55:42.153Z,3.50
2019-02-28T01:58:08.408Z,3.50
2019-02-28T02:00:34.729Z,3.80
2019-02-28T02:03:00.955Z,4.00
2019-02-28T02:05:27.212Z,4.10
2019-02-28T02:07:54.558Z,4.10
2019-02-28T02:10:21.892Z,4.00
2019-02-28T02:12:49.141Z,4.10
2019-02-28T02:15:17.035Z,4.10
2019-02-28T02:17:44.254Z,4.00
2019-02-28T02:20:12.498Z,3.90
2019-02-28T02:22:40.630Z,3.90
2019-02-28T02:25:07.979Z,3.90
2019-02-28T02:27:34.321Z,3.90
2019-02-28T02:30:00.550Z,3.90
2019-02-28T02:32:26.881Z,3.90
2019-02-28T02:34:54.359Z,3.80
2019-02-28T02:37:21.001Z,3.70
2019-02-28T02:39:50.177Z,3.60
2019-02-28T02:42:15.615Z,3.30
2019-02-28T02:44:42.141Z,3.20
2019-02-28T02:47:08.502Z,3.10
2019-02-28T02:49:34.761Z,3.00
2019-02-28T02:52:01.083Z,3.00
2019-02-28T02:54:27.505Z,2.90
2019-02-28T02:56:53.858Z,3.10
2019-02-28T02:59:21.196Z,3.10
2019-02-28T03:01:47.532Z,3.30
2019-02-28T03:04:21.711Z,3.30
2019-02-28T03:06:45.879Z,3.30
2019-02-28T03:09:11.992Z,3.30
2019-02-28T03:11:39.309Z,3.20
2019-02-28T03:14:06.526Z,3.30
2019-02-28T03:16:34.630Z,3.20
2019-02-28T03:19:01.301Z,3.10
2019-02-28T03:21:27.725Z,3.00
2019-02-28T03:23:53.955Z,3.00
2019-02-28T03:26:20.226Z,2.90
2019-02-28T03:28:46.478Z,3.10
2019-02-28T03:31:15.381Z,3.20
2019-02-28T03:33:40.929Z,3.20
2019-02-28T03:36:07.241Z,3.10
2019-02-28T03:38:33.566Z,3.20
2019-02-28T03:40:59.963Z,3.20
2019-02-28T03:43:27.427Z,3.20
2019-02-28T03:45:54.122Z,3.00
2019-02-28T03:48:21.622Z,2.90
2019-02-28T03:50:49.206Z,2.90
2019-02-28T03:53:19.437Z,2.80
2019-02-28T03:55:43.641Z,2.60
2019-02-28T03:58:10.278Z,2.60
2019-02-28T04:00:36.595Z,2.60
2019-02-28T04:03:03.040Z,2.80
2019-02-28T04:05:29.269Z,2.70
2019-02-28T04:07:55.601Z,2.60
2019-02-28T04:10:22.590Z,2.40
2019-02-28T04:12:49.198Z,2.30
2019-02-28T04:15:16.907Z,2.20
2019-02-28T04:17:43.160Z,2.10
2019-02-28T04:20:09.593Z,2.10
2019-02-28T04:22:36.313Z,2.10
2019-02-28T04:25:04.145Z,2.10
2019-02-28T04:27:30.370Z,2.10
2019-02-28T04:29:57.815Z,2.00
2019-02-28T04:32:27.672Z,2.00
2019-02-28T04:34:52.784Z,2.00
2019-02-28T04:37:21.194Z,2.00
2019-02-28T04:39:47.304Z,1.90
2019-02-28T04:42:13.496Z,1.90
2019-02-28T04:44:39.677Z,2.00
2019-02-28T04:47:06.782Z,2.20
2019-02-28T04:49:33.861Z,2.20
2019-02-28T04:52:00.022Z,2.40
2019-02-28T04:54:29.037Z,2.40
2019-02-28T04:56:55.715Z,2.40
2019-02-28T04:59:21.817Z,2.40
2019-02-28T05:01:48.004Z,2.50
2019-02-28T05:04:14.089Z,2.50
2019-02-28T05:06:40.187Z,2.70
2019-02-28T05:09:10.669Z,2.80
2019-02-28T05:11:39.321Z,2.80
2019-02-28T05:14:05.642Z,2.70
2019-02-28T05:16:32.983Z,2.50
2019-02-28T05:19:01.530Z,2.40
2019-02-28T05:21:27.535Z,2.10
2019-02-28T05:23:53.637Z,2.00
2019-02-28T05:26:19.725Z,1.90
2019-02-28T05:28:45.827Z,1.90
2019-02-28T05:31:14.822Z,1.90
2019-02-28T05:33:46.962Z,1.80
2019-02-28T05:36:14.179Z,1.80
2019-02-28T05:38:40.788Z,1.70
2019-02-28T05:41:07.210Z,1.60
2019-02-28T05:43:33.677Z,1.70
2019-02-28T05:46:01.334Z,1.60
2019-02-28T05:48:27.949Z,1.70
2019-02-28T05:50:54.179Z,1.60
2019-02-28T05:53:20.341Z,1.60
2019-02-28T05:55:46.544Z,1.60
2019-02-28T05:58:17.587Z,1.60
2019-02-28T06:00:40.830Z,1.50
2019-02-28T06:03:06.914Z,1.50
2019-02-28T06:05:33.012Z,1.60
2019-02-28T06:08:00.573Z,1.60
2019-02-28T06:10:27.301Z,1.70
2019-02-28T06:12:53.407Z,1.70
2019-02-28T06:15:19.611Z,1.60
2019-02-28T06:17:45.785Z,1.60
2019-02-28T06:20:16.536Z,1.60
2019-02-28T06:22:40.619Z,1.70
2019-02-28T06:25:07.623Z,1.70
2019-02-28T06:27:41.160Z,1.70
2019-02-28T06:30:02.529Z,1.80
2019-02-28T06:32:28.989Z,1.80
2019-02-28T06:34:55.282Z,1.80
2019-02-28T06:37:23.825Z,1.80
2019-02-28T06:39:49.488Z,1.70
2019-02-28T06:42:15.680Z,1.60
2019-02-28T06:44:41.901Z,1.50
2019-02-28T06:47:07.978Z,1.40
2019-02-28T06:49:34.093Z,1.40
2019-02-28T06:52:00.268Z,1.60
2019-02-28T06:54:26.632Z,1.60
2019-02-28T06:56:54.111Z,1.50
2019-02-28T06:59:21.857Z,1.60
2019-02-28T07:01:56.604Z,1.60
2019-02-28T07:04:18.663Z,1.50
2019-02-28T07:06:46.214Z,1.60
2019-02-28T07:09:13.681Z,1.80
2019-02-28T07:11:51.285Z,1.80
2019-02-28T07:14:15.957Z,1.80
2019-02-28T07:16:42.489Z,1.90
2019-02-28T07:19:11.692Z,2.00
2019-02-28T07:21:43.234Z,2.10
2019-02-28T07:24:09.706Z,2.20
2019-02-28T07:26:37.811Z,2.30
2019-02-28T07:29:11.105Z,2.40
2019-02-28T07:31:35.052Z,2.50
2019-02-28T07:34:02.565Z,2.50
2019-02-28T07:36:34.327Z,2.50
2019-02-28T07:39:04.498Z,2.70
2019-02-28T07:41:34.047Z,2.80
2019-02-28T07:44:01.782Z,3.00
2019-02-28T07:46:31.510Z,3.10
2019-02-28T07:49:00.874Z,3.30
2019-02-28T07:51:31.700Z,3.50
2019-02-28T07:54:01.436Z,3.70
2019-02-28T07:56:30.433Z,3.80
2019-02-28T07:58:59.037Z,3.90
2019-02-28T08:01:27.682Z,4.00
2019-02-28T08:03:56.561Z,4.00
2019-02-28T08:06:25.038Z,4.10
2019-02-28T08:08:52.922Z,4.20
2019-02-28T08:11:20.883Z,4.20
2019-02-28T08:13:47.229Z,4.30
2019-02-28T08:16:15.853Z,4.40
2019-02-28T08:18:44.340Z,4.50
2019-02-28T08:21:15.563Z,4.40
2019-02-28T08:23:43.350Z,4.50
2019-02-28T08:26:11.031Z,4.60
2019-02-28T08:28:38.349Z,4.60
2019-02-28T08:31:07.931Z,4.80
2019-02-28T08:33:36.238Z,4.80
2019-02-28T08:36:08.653Z,4.90
2019-02-28T08:38:34.438Z,5.00
2019-02-28T08:41:01.025Z,5.10
2019-02-28T08:43:27.542Z,5.10
2019-02-28T08:45:56.585Z,5.10
2019-02-28T08:48:24.536Z,5.20
2019-02-28T08:50:52.711Z,5.20
2019-02-28T08:53:21.291Z,5.20
2019-02-28T08:55:50.335Z,5.20
2019-02-28T08:58:17.037Z,5.20
2019-02-28T09:00:44.670Z,5.30
2019-02-28T09:03:11.196Z,5.40
2019-02-28T09:05:39.238Z,5.50
2019-02-28T09:08:06.894Z,5.70
2019-02-28T09:10:33.677Z,5.70
2019-02-28T09:13:00.086Z,5.70
2019-02-28T09:15:31.107Z,5.70
2019-02-28T09:17:59.711Z,5.80
2019-02-28T09:20:28.557Z,5.90
2019-02-28T09:23:01.540Z,6.00
2019-02-28T09:25:26.910Z,6.10
2019-02-28T09:27:53.835Z,6.20
2019-02-28T09:30:22.136Z,6.20
2019-02-28T09:32:48.872Z,6.30
2019-02-28T09:35:15.701Z,6.30
2019-02-28T09:37:42.866Z,6.40
2019-02-28T09:40:10.438Z,6.60
2019-02-28T09:42:36.972Z,6.70
2019-02-28T09:45:07.624Z,6.90
2019-02-28T09:47:34.449Z,6.90
2019-02-28T09:50:03.813Z,6.90
2019-02-28T09:52:31.773Z,7.00
2019-02-28T09:54:59.904Z,7.10
2019-02-28T09:57:30.146Z,7.10
2019-02-28T09:59:57.427Z,7.20
2019-02-28T10:02:23.944Z,7.30
2019-02-28T10:04:50.147Z,7.40
2019-02-28T10:07:16.355Z,7.60
2019-02-28T10:09:44.200Z,7.60
2019-02-28T10:12:12.879Z,7.70
2019-02-28T10:14:39.323Z,7.70
2019-02-28T10:17:05.866Z,7.80
2019-02-28T10:19:44.805Z,7.90
2019-02-28T10:22:03.732Z,8.10
2019-02-28T10:24:31.519Z,8.10
2019-02-28T10:26:58.484Z,8.20
2019-02-28T10:29:26.112Z,8.30
2019-02-28T10:31:53.011Z,8.40
2019-02-28T10:34:19.495Z,8.50
2019-02-28T10:36:47.780Z,8.60
2019-02-28T10:39:14.654Z,8.60
2019-02-28T10:41:42.073Z,8.70
2019-02-28T10:44:09.604Z,8.60
2019-02-28T10:46:36.140Z,8.70
2019-02-28T10:49:05.872Z,8.70
2019-02-28T10:51:32.481Z,8.70
2019-02-28T10:53:59.846Z,8.70
2019-02-28T10:56:31.685Z,8.70
2019-02-28T10:58:55.986Z,8.70
2019-02-28T11:01:24.726Z,8.70
2019-02-28T11:03:52.931Z,8.70
2019-02-28T11:06:20.084Z,8.80
2019-02-28T11:08:48.311Z,8.80
2019-02-28T11:11:16.279Z,9.00
2019-02-28T11:13:43.357Z,9.10
2019-02-28T11:16:11.653Z,9.20
2019-02-28T11:18:41.875Z,9.30
2019-02-28T11:21:09.094Z,9.30
2019-02-28T11:23:36.982Z,9.40
2019-02-28T11:26:06.331Z,9.40
2019-02-28T11:28:32.631Z,9.30
2019-02-28T11:31:00.362Z,9.30
2019-02-28T11:33:26.924Z,9.40
2019-02-28T11:35:59.026Z,9.40
2019-02-28T11:38:24.088Z,9.50
2019-02-28T11:40:57.309Z,9.50
2019-02-28T11:43:22.315Z,9.50
2019-02-28T11:45:53.283Z,9.40
2019-02-28T11:48:22.671Z,9.40
2019-02-28T11:50:49.391Z,9.50
2019-02-28T11:53:18.964Z,9.50
2019-02-28T11:55:47.462Z,9.60
2019-02-28T11:58:18.453Z,9.70
2019-02-28T12:00:46.170Z,9.70
2019-02-28T12:03:12.883Z,9.80
2019-02-28T12:05:39.889Z,9.80
2019-02-28T12:08:09.276Z,9.80
2019-02-28T12:10:35.342Z,9.80
2019-02-28T12:13:01.899Z,9.80
2019-02-28T12:15:31.686Z,9.80
2019-02-28T12:18:03.648Z,9.70
2019-02-28T12:20:27.465Z,9.60
2019-02-28T12:22:54.026Z,9.60
2019-02-28T12:25:21.453Z,9.50
2019-02-28T12:27:47.920Z,9.50
2019-02-28T12:30:16.292Z,9.60
2019-02-28T12:32:44.155Z,9.60
2019-02-28T12:35:11.501Z,9.60
2019-02-28T12:37:39.244Z,9.60
2019-02-28T12:40:10.419Z,9.60
2019-02-28T12:42:37.793Z,9.70
2019-02-28T12:45:07.351Z,9.80
2019-02-28T12:47:34.993Z,9.90
2019-02-28T12:50:02.522Z,9.90
2019-02-28T12:52:30.835Z,9.90
2019-02-28T12:54:57.090Z,10.00
2019-02-28T12:57:24.837Z,10.00
2019-02-28T12:59:53.929Z,10.00
2019-02-28T13:02:21.413Z,10.10
2019-02-28T13:04:48.796Z,10.10
2019-02-28T13:07:16.480Z,10.10
2019-02-28T13:09:44.213Z,10.20
2019-02-28T13:12:12.109Z,10.20
2019-02-28T13:14:40.790Z,10.20
2019-02-28T13:17:08.396Z,10.20
2019-02-28T13:19:35.809Z,10.20
2019-02-28T13:22:02.199Z,10.20
2019-02-28T13:24:30.270Z,10.20
2019-02-28T13:26:58.259Z,10.20
2019-02-28T13:29:28.843Z,10.20
2019-02-28T13:31:57.681Z,10.10
2019-02-28T13:34:25.236Z,10.10
2019-02-28T13:36:54.228Z,10.10
2019-02-28T13:39:21.111Z,10.10
2019-02-28T13:41:47.213Z,10.10
2019-02-28T13:44:14.706Z,10.10
2019-02-28T13:46:42.651Z,10.10
2019-02-28T13:49:12.060Z,10.20
2019-02-28T13:51:41.975Z,10.20
2019-02-28T13:54:15.681Z,10.20
2019-02-28T13:56:43.555Z,10.30
2019-02-28T13:59:09.933Z,10.30
2019-02-28T14:01:37.875Z,10.20
2019-02-28T14:04:05.957Z,10.20
2019-02-28T14:06:32.629Z,10.10
2019-02-28T14:08:59.192Z,10.10
2019-02-28T14:11:26.292Z,10.10
2019-02-28T14:13:53.859Z,10.10
2019-02-28T14:16:26.533Z,9.90
2019-02-28T14:18:51.653Z,9.70
2019-02-28T14:21:20.636Z,9.60
2019-02-28T14:23:47.255Z,9.40
2019-02-28T14:26:14.945Z,9.40
2019-02-28T14:28:45.629Z,9.30
2019-02-28T14:31:13.730Z,9.30
2019-02-28T14:33:41.503Z,9.20
2019-02-28T14:36:10.482Z,9.30
2019-02-28T14:38:42.143Z,9.30
2019-02-28T14:41:10.725Z,9.30
2019-02-28T14:43:38.753Z,9.20
2019-02-28T14:46:06.622Z,9.20
2019-02-28T14:48:33.129Z,9.10
2019-02-28T14:51:04.059Z,9.00
2019-02-28T14:53:31.777Z,8.90
2019-02-28T14:56:00.045Z,8.80
2019-02-28T14:58:27.732Z,8.60
2019-02-28T15:00:54.224Z,8.50
2019-02-28T15:03:20.442Z,8.50
2019-02-28T15:05:46.787Z,8.40
2019-02-28T15:08:15.228Z,8.50
2019-02-28T15:10:43.857Z,8.50
2019-02-28T15:13:10.979Z,8.40
2019-02-28T15:15:39.866Z,8.40
2019-02-28T15:18:10.942Z,8.30
2019-02-28T15:20:40.139Z,8.20
2019-02-28T15:23:08.020Z,8.20
2019-02-28T15:25:35.756Z,8.10
2019-02-28T15:28:02.219Z,8.00
2019-02-28T15:30:30.427Z,8.00
2019-02-28T15:32:57.690Z,8.00
2019-02-28T15:35:23.808Z,8.00
2019-02-28T15:38:47.958Z,8.00
2019-02-28T15:42:36.162Z,8.00
2019-02-28T15:45:05.079Z,8.00
2019-02-28T15:47:31.409Z,8.00
2019-02-28T15:49:58.649Z,7.90
2019-02-28T15:52:25.977Z,7.90
2019-02-28T15:54:52.197Z,7.90
2019-02-28T15:57:18.466Z,7.80
2019-02-28T15:59:46.656Z,7.80
2019-02-28T16:02:13.021Z,7.70
2019-02-28T16:04:39.269Z,7.70
2019-02-28T16:07:05.530Z,7.70
2019-02-28T16:09:31.828Z,7.60
2019-02-28T16:11:58.263Z,7.60
2019-02-28T16:14:24.574Z,7.50
2019-02-28T16:16:50.800Z,7.40
2019-02-28T16:19:18.906Z,7.30
2019-02-28T16:21:45.296Z,7.20
2019-02-28T16:24:11.552Z,7.10
2019-02-28T16:26:37.905Z,7.00
2019-02-28T16:29:04.228Z,6.90
2019-02-28T16:31:31.440Z,6.80
2019-02-28T16:34:04.880Z,6.60
2019-02-28T16:36:26.614Z,6.60
2019-02-28T16:38:52.933Z,6.50
2019-02-28T16:41:19.266Z,6.40
2019-02-28T16:43:45.491Z,6.30
2019-02-28T16:46:12.374Z,6.20
2019-02-28T16:48:39.970Z,6.10
2019-02-28T16:51:06.297Z,5.90
2019-02-28T16:53:32.623Z,5.80
2019-02-28T16:55:58.869Z,5.70
2019-02-28T16:58:25.101Z,5.60
2019-02-28T17:00:51.321Z,5.60
2019-02-28T17:03:18.560Z,5.60
2019-02-28T17:05:44.789Z,5.50
2019-02-28T17:08:11.409Z,5.50
2019-02-28T17:10:40.060Z,5.40
2019-02-28T17:13:24.469Z,5.40
2019-02-28T17:16:01.199Z,5.30
2019-02-28T17:18:37.264Z,5.30
2019-02-28T17:21:03.573Z,5.20
2019-02-28T17:23:29.793Z,5.20
2019-02-28T17:25:56.563Z,5.20
2019-02-28T17:28:40.860Z,5.10
2019-02-28T17:31:11.505Z,5.00
2019-02-28T17:33:37.358Z,5.00
2019-02-28T17:36:08.094Z,4.90
2019-02-28T17:38:33.095Z,4.80
2019-02-28T17:41:01.894Z,4.70
2019-02-28T17:43:29.225Z,4.70
2019-02-28T17:45:55.452Z,4.60
2019-02-28T17:48:34.600Z,4.50
2019-02-28T17:51:07.349Z,4.50
2019-02-28T17:53:37.617Z,4.50
2019-02-28T17:56:40.849Z,4.40
2019-02-28T17:59:25.382Z,4.30
2019-02-28T18:02:24.713Z,4.30
2019-02-28T18:05:11.533Z,4.30
2019-02-28T18:07:53.909Z,4.10
2019-02-28T18:10:45.857Z,4.10
2019-02-28T18:13:16.145Z,4.10
2019-02-28T18:15:50.804Z,4.00
2019-02-28T18:18:29.905Z,4.00
2019-02-28T18:21:08.755Z,4.00
2019-02-28T18:24:00.177Z,4.00
2019-02-28T18:26:44.101Z,3.90
2019-02-28T18:29:17.340Z,3.80
2019-02-28T18:31:43.650Z,3.90
2019-02-28T18:34:09.981Z,3.90
2019-02-28T18:36:36.287Z,3.90
2019-02-28T18:39:08.026Z,3.80
2019-02-28T18:41:34.107Z,3.80
2019-02-28T18:44:03.663Z,3.80
2019-02-28T18:46:29.457Z,3.70
2019-02-28T18:48:56.678Z,3.70
2019-02-28T18:51:22.899Z,3.80
2019-02-28T18:53:49.423Z,3.80
2019-02-28T18:56:15.758Z,3.80
2019-02-28T18:58:42.084Z,3.80
2019-02-28T19:01:08.507Z,3.70
2019-02-28T19:03:34.837Z,3.70
2019-02-28T19:06:01.322Z,3.70
2019-02-28T19:08:27.745Z,3.70
2019-02-28T19:10:55.038Z,3.70
2019-02-28T19:13:21.506Z,3.60
2019-02-28T19:15:47.829Z,3.50
2019-02-28T19:18:14.072Z,3.40
2019-02-28T19:20:40.381Z,3.40
2019-02-28T19:23:06.601Z,3.30
2019-02-28T19:25:33.045Z,3.20
2019-02-28T19:27:59.362Z,3.20
2019-02-28T19:30:26.571Z,3.10
2019-02-28T19:32:52.802Z,3.10
2019-02-28T19:35:19.122Z,3.10
2019-02-28T19:37:45.430Z,3.10
2019-02-28T19:40:12.465Z,3.00
2019-02-28T19:42:38.870Z,3.00
2019-02-28T19:45:08.896Z,3.00
2019-02-28T19:47:35.229Z,2.90
2019-02-28T19:50:01.439Z,2.80
2019-02-28T19:52:27.842Z,2.80
2019-02-28T19:54:54.266Z,2.70
2019-02-28T19:57:20.469Z,2.70
2019-02-28T19:59:46.698Z,2.80
2019-02-28T20:02:13.017Z,2.80
2019-02-28T20:04:39.241Z,2.80
2019-02-28T20:07:05.557Z,2.70
2019-02-28T20:09:31.971Z,2.60
2019-02-28T20:11:58.185Z,2.50
2019-02-28T20:14:24.397Z,2.40
2019-02-28T20:16:50.620Z,2.40
2019-02-28T20:19:16.937Z,2.40
2019-02-28T20:21:43.147Z,2.40
2019-02-28T20:24:09.373Z,2.30
2019-02-28T20:26:35.697Z,2.30
2019-02-28T20:29:01.905Z,2.30
2019-02-28T20:31:28.362Z,2.30
2019-02-28T20:33:55.668Z,2.30
2019-02-28T20:36:22.093Z,2.30
2019-02-28T20:38:48.416Z,2.20
2019-02-28T20:41:14.730Z,2.20
2019-02-28T20:43:41.039Z,2.20
2019-02-28T20:46:07.280Z,2.10
2019-02-28T20:48:33.597Z,2.10
2019-02-28T20:50:59.812Z,2.00
2019-02-28T20:53:26.046Z,1.90
2019-02-28T20:55:52.478Z,1.90
2019-02-28T20:58:18.885Z,1.90
2019-02-28T21:00:45.293Z,1.90
2019-02-28T21:03:11.506Z,1.90
2019-02-28T21:05:37.819Z,1.90
2019-02-28T21:08:04.164Z,1.90
2019-02-28T21:10:30.574Z,1.90
2019-02-28T21:12:56.987Z,1.90
2019-02-28T21:15:24.870Z,1.90
2019-02-28T21:17:52.336Z,1.80
2019-02-28T21:20:18.643Z,1.70
2019-02-28T21:22:44.965Z,1.70
2019-02-28T21:25:15.677Z,1.60
2019-02-28T21:27:42.085Z,1.60
2019-02-28T21:30:18.346Z,1.60
2019-02-28T21:32:44.747Z,1.60
2019-02-28T21:35:11.178Z,1.60
2019-02-28T21:37:37.699Z,1.50
2019-02-28T21:40:08.503Z,1.40
2019-02-28T21:42:35.723Z,1.40
2019-02-28T21:45:04.905Z,1.40
2019-02-28T21:47:32.022Z,1.30
2019-02-28T21:49:58.231Z,1.30
2019-02-28T21:52:24.453Z,1.20
2019-02-28T21:54:50.711Z,1.20
2019-02-28T21:57:17.217Z,1.20
2019-02-28T21:59:43.452Z,1.20
2019-02-28T22:02:09.660Z,1.10
2019-02-28T22:04:35.882Z,1.10
2019-02-28T22:07:02.304Z,1.10
2019-02-28T22:09:29.633Z,1.00
2019-02-28T22:11:55.857Z,1.00
2019-02-28T22:14:22.077Z,1.00
2019-02-28T22:16:48.389Z,0.90
2019-02-28T22:19:14.606Z,0.90
2019-02-28T22:21:40.845Z,0.80
2019-02-28T22:24:07.073Z,0.80
2019-02-28T22:26:34.144Z,0.80
2019-02-28T22:29:00.514Z,0.80
2019-02-28T22:31:28.713Z,0.80
2019-02-28T22:33:56.829Z,0.80
2019-02-28T22:36:27.909Z,0.80
2019-02-28T22:38:54.125Z,0.80
2019-02-28T22:41:20.361Z,0.80
2019-02-28T22:43:46.738Z,0.80
2019-02-28T22:46:12.953Z,0.80
2019-02-28T22:48:39.197Z,0.80
2019-02-28T22:51:05.561Z,0.70
2019-02-28T22:53:31.785Z,0.80
2019-02-28T22:55:58.005Z,0.80
2019-02-28T22:58:24.255Z,0.70
2019-02-28T23:01:01.263Z,0.70
2019-02-28T23:03:31.515Z,0.60
2019-02-28T23:05:57.979Z,0.60
2019-02-28T23:08:24.315Z,0.60
2019-02-28T23:10:50.541Z,0.60
2019-02-28T23:13:16.761Z,0.60
2019-02-28T23:15:42.994Z,0.60
2019-02-28T23:18:09.345Z,0.60
2019-02-28T23:20:35.573Z,0.70
2019-02-28T23:23:01.789Z,0.70
2019-02-28T23:25:28.031Z,0.70
2019-02-28T23:28:09.107Z,0.70
2019-02-28T23:30:39.157Z,0.60
2019-02-28T23:33:05.642Z,0.60
2019-02-28T23:35:33.326Z,0.50
2019-02-28T23:37:59.645Z,0.60
2019-02-28T23:40:25.855Z,0.60
2019-02-28T23:42:52.079Z,0.70
2019-02-28T23:45:18.442Z,0.60
2019-02-28T23:47:44.749Z,0.50
2019-02-28T23:50:11.076Z,0.50
2019-02-28T23:52:37.325Z,0.50
2019-02-28T23:55:06.352Z,0.50
2019-02-28T23:57:32.562Z,0.60
2019-02-28T23:59:58.847Z,0.50
